Time;durP1;ratioP1;P1;durP2;ratioP2;P2;SDS_P1;SDS_P2;PMS_P1;PMS_P2;Temp;Humidity;BMP_temperature;BMP_pressure;BME280_temperature;BME280_humidity;BME280_pressure;Samples;Min_cycle;Max_cycle;Signal;HPM_P1;HPM_P2
2022/01/14 00:01:06;;;;;;;4.97;1.75;;;;;;;2.16;100.00;102090.41;6073739;23;20047;-83
2022/01/14 00:04:10;;;;;;;4.95;2.50;;;;;;;2.12;100.00;102080.50;6112111;23;20042;-82
2022/01/14 00:07:14;;;;;;;3.35;1.13;;;;;;;2.16;100.00;102082.16;6083668;23;20390;-82
2022/01/14 00:10:17;;;;;;;3.33;2.28;;;;;;;2.20;100.00;102083.00;6102900;23;20058;-83
2022/01/14 00:16:43;;;;;;;0.85;0.52;;;;;;;2.31;100.00;102080.47;6120505;23;20042;-83
2022/01/14 00:19:47;;;;;;;1.30;1.23;;;;;;;2.28;100.00;102084.72;6120418;23;20513;-83
2022/01/14 00:59:29;;;;;;;2.88;1.98;;;;;;;3.15;100.00;102049.97;6090827;23;20390;-82
2022/01/14 01:02:32;;;;;;;3.55;1.77;;;;;;;3.16;100.00;102062.59;6095817;23;20039;-82
2022/01/14 01:05:36;;;;;;;4.30;1.42;;;;;;;3.27;100.00;102047.78;6102641;23;20114;-82
2022/01/14 01:08:39;;;;;;;5.10;2.13;;;;;;;3.37;100.00;102051.88;6106738;23;20043;-82
2022/01/14 01:12:04;;;;;;;1.77;1.15;;;;;;;3.46;100.00;102044.13;6119613;23;20492;-82
2022/01/14 01:15:09;;;;;;;7.18;1.75;;;;;;;3.53;100.00;102038.72;6102501;23;20039;-82
2022/01/14 01:18:12;;;;;;;9.20;2.95;;;;;;;3.55;100.00;102031.66;6107947;23;20043;-82
2022/01/14 01:21:16;;;;;;;0.90;0.85;;;;;;;3.63;100.00;102038.06;6119874;23;20047;-82
2022/01/14 01:24:19;;;;;;;3.25;1.02;;;;;;;3.65;100.00;102030.19;6119174;23;20039;-82
2022/01/14 01:27:22;;;;;;;2.08;1.85;;;;;;;3.68;100.00;102034.97;6119691;23;20118;-82
2022/01/14 01:33:35;;;;;;;2.22;1.13;;;;;;;3.83;100.00;102022.94;6120106;23;20039;-82
2022/01/14 01:36:41;;;;;;;2.60;1.42;;;;;;;3.87;100.00;102021.00;6119964;23;20378;-82
2022/01/14 01:39:44;;;;;;;3.25;2.10;;;;;;;3.92;100.00;102012.38;6099904;23;20047;-82
2022/01/14 01:42:49;;;;;;;2.85;0.98;;;;;;;3.94;100.00;102009.28;6120065;23;20477;-81
2022/01/14 01:45:54;;;;;;;4.97;1.38;;;;;;;3.89;100.00;102013.16;6102173;23;20063;-81
2022/01/14 01:48:57;;;;;;;6.70;1.85;;;;;;;3.91;100.00;102010.03;6107550;23;20398;-82
2022/01/14 01:52:02;;;;;;;5.03;1.90;;;;;;;3.88;100.00;102003.28;6073443;23;20043;-81
2022/01/14 01:55:06;;;;;;;5.85;1.55;;;;;;;3.70;100.00;102011.34;6090657;23;20489;-81
2022/01/14 01:58:10;;;;;;;9.05;1.95;;;;;;;3.57;100.00;102006.50;6102624;23;20485;-82
2022/01/14 02:01:13;;;;;;;12.82;2.08;;;;;;;3.57;100.00;102009.25;6119456;23;20043;-81
2022/01/14 02:04:17;;;;;;;4.35;1.42;;;;;;;3.55;100.00;102009.59;6117925;23;20059;-82
2022/01/14 02:07:21;;;;;;;1.08;1.08;;;;;;;3.50;100.00;102012.72;6103736;23;20393;-82
2022/01/14 02:10:25;;;;;;;0.15;0.15;;;;;;;3.46;100.00;102011.88;6107602;23;20039;-82
2022/01/14 02:13:31;;;;;;;0.70;0.70;;;;;;;3.42;100.00;102004.75;6119441;23;20042;-83
2022/01/14 02:16:57;;;;;;;1.23;0.40;;;;;;;3.31;100.00;102009.31;6119045;23;20043;-82
2022/01/14 02:23:31;;;;;;;1.95;1.17;;;;;;;3.36;100.00;102008.97;6118613;23;20051;-82
2022/01/14 02:26:47;;;;;;;2.33;1.15;;;;;;;3.40;100.00;102007.06;6120058;23;20480;-82
2022/01/14 02:29:51;;;;;;;1.02;0.95;;;;;;;3.35;100.00;102004.63;6107715;23;20042;-82
2022/01/14 02:32:54;;;;;;;3.30;1.38;;;;;;;3.33;100.00;102002.28;6119366;23;20054;-82
2022/01/14 02:36:00;;;;;;;1.10;0.65;;;;;;;3.33;100.00;102004.22;6120409;23;20693;-82
2022/01/14 02:39:03;;;;;;;1.40;1.15;;;;;;;3.32;100.00;102008.94;6110698;23;20563;-82
2022/01/14 02:42:08;;;;;;;3.83;1.33;;;;;;;3.30;100.00;102007.72;6082871;23;20043;-82
2022/01/14 02:45:13;;;;;;;0.63;0.63;;;;;;;3.18;100.00;102005.19;6121256;23;20074;-82
2022/01/14 02:48:18;;;;;;;1.15;1.15;;;;;;;3.11;100.00;101996.84;6092490;23;20038;-82
2022/01/14 02:51:21;;;;;;;2.40;1.48;;;;;;;3.05;100.00;101991.66;6115121;23;20046;-82
2022/01/14 02:54:41;;;;;;;5.45;1.20;;;;;;;2.95;100.00;101988.75;6103745;23;20397;-82
2022/01/14 02:57:50;;;;;;;4.63;1.95;;;;;;;2.86;100.00;101986.28;6120610;23;20386;-82
2022/01/14 03:00:54;;;;;;;2.97;1.30;;;;;;;2.85;100.00;101992.16;6095176;23;20041;-82
2022/01/14 03:04:00;;;;;;;0.80;0.80;;;;;;;2.81;100.00;101981.09;6079440;23;20043;-82
2022/01/14 03:07:04;;;;;;;1.50;1.35;;;;;;;2.84;100.00;101993.31;6108367;23;20055;-81
2022/01/14 03:10:09;;;;;;;1.58;1.17;;;;;;;2.96;100.00;101987.59;6098414;23;20064;-82
2022/01/14 03:13:13;;;;;;;10.82;1.35;;;;;;;3.06;100.00;101987.75;6100985;23;20043;-82
2022/01/14 03:16:21;;;;;;;0.30;0.30;;;;;;;3.10;100.00;101987.78;6100001;23;20042;-82
2022/01/14 03:19:26;;;;;;;1.60;1.02;;;;;;;3.17;100.00;101976.06;6106747;23;20044;-82
2022/01/14 03:22:34;;;;;;;4.78;1.10;;;;;;;3.17;100.00;101970.56;6102297;23;20035;-81
2022/01/14 03:25:51;;;;;;;0.43;0.43;;;;;;;3.14;100.00;101979.59;6108109;23;20153;-82
2022/01/14 03:28:55;;;;;;;4.68;1.42;;;;;;;3.21;100.00;101966.69;6099601;23;20044;-82
2022/01/14 03:31:59;;;;;;;6.65;2.00;;;;;;;3.32;100.00;101969.56;6113006;23;20058;-82
2022/01/14 03:35:02;;;;;;;0.45;0.45;;;;;;;3.33;100.00;101963.72;6108082;23;20046;-82
2022/01/14 03:38:06;;;;;;;0.55;0.55;;;;;;;3.30;100.00;101963.66;6102306;23;20058;-82
2022/01/14 03:41:09;;;;;;;0.88;0.47;;;;;;;3.32;100.00;101964.06;6106528;23;20047;-82
2022/01/14 03:44:13;;;;;;;1.40;1.13;;;;;;;3.36;100.00;101971.22;6120887;23;20047;-82
2022/01/14 03:47:17;;;;;;;2.17;0.68;;;;;;;3.34;100.00;101958.97;6113493;23;20051;-82
2022/01/14 03:50:20;;;;;;;2.78;0.63;;;;;;;3.35;100.00;101953.13;6120385;23;20066;-83
2022/01/14 03:53:23;;;;;;;0.60;0.55;;;;;;;3.36;100.00;101956.66;6120676;23;20042;-82
2022/01/14 03:56:27;;;;;;;2.25;0.40;;;;;;;3.41;100.00;101967.34;6080961;23;20042;-82
2022/01/14 03:59:30;;;;;;;0.68;0.68;;;;;;;3.39;100.00;101950.41;6120044;23;20043;-82
2022/01/14 04:02:33;;;;;;;4.68;1.23;;;;;;;3.38;100.00;101949.59;6112280;23;20031;-82
2022/01/14 04:05:37;;;;;;;0.82;0.73;;;;;;;3.45;100.00;101949.69;6091736;23;20047;-82
2022/01/14 04:08:41;;;;;;;1.80;1.15;;;;;;;3.47;100.00;101941.03;6091812;23;20046;-82
2022/01/14 04:11:45;;;;;;;0.70;0.70;;;;;;;3.44;100.00;101941.81;6074098;23;20047;-83
2022/01/14 04:17:52;;;;;;;2.85;1.55;;;;;;;3.51;100.00;101936.38;6114176;23;20043;-82
2022/01/14 04:20:55;;;;;;;0.30;0.30;;;;;;;3.52;100.00;101932.44;6084823;23;20047;-82
2022/01/14 04:23:59;;;;;;;3.85;0.95;;;;;;;3.44;100.00;101933.56;6120474;23;20493;-82
2022/01/14 04:27:02;;;;;;;1.20;1.17;;;;;;;3.46;100.00;101931.22;6120038;23;20042;-82
2022/01/14 04:30:06;;;;;;;0.40;0.40;;;;;;;3.56;100.00;101933.28;6094202;23;20395;-81
2022/01/14 04:33:10;;;;;;;3.20;1.08;;;;;;;3.62;100.00;101920.75;6120490;23;20046;-83
2022/01/14 04:36:14;;;;;;;3.78;0.98;;;;;;;3.62;100.00;101934.50;6116309;23;20480;-83
2022/01/14 04:39:18;;;;;;;1.05;0.50;;;;;;;3.62;100.00;101920.75;6120376;23;20038;-82
2022/01/14 04:42:23;;;;;;;0.55;0.55;;;;;;;3.66;100.00;101913.34;6120206;23;20425;-82
2022/01/14 04:46:35;;;;;;;1.15;0.63;;;;;;;3.72;100.00;101906.31;6120036;23;20042;-82
2022/01/14 04:48:51;;;;;;;1.65;0.55;;;;;;;3.69;100.00;101905.09;6120322;23;20043;-82
2022/01/14 04:51:56;;;;;;;1.75;0.98;;;;;;;3.70;100.00;101900.38;6120432;23;20583;-83
2022/01/14 04:54:59;;;;;;;0.40;0.40;;;;;;;3.62;100.00;101902.25;6073786;23;20386;-82
2022/01/14 04:58:03;;;;;;;3.13;0.63;;;;;;;3.66;100.00;101903.09;6095386;23;20047;-82
2022/01/14 05:01:06;;;;;;;5.68;1.25;;;;;;;3.65;100.00;101875.91;6092284;23;20425;-82
2022/01/14 05:04:09;;;;;;;0.43;0.43;;;;;;;3.66;100.00;101872.00;6120612;23;20039;-82
2022/01/14 05:07:23;;;;;;;0.10;0.10;;;;;;;3.68;100.00;101883.44;6074039;23;20047;-82
2022/01/14 05:13:33;;;;;;;1.27;0.63;;;;;;;3.64;100.00;101886.13;6105890;23;20492;-82
2022/01/14 05:16:36;;;;;;;1.10;0.50;;;;;;;3.60;100.00;101898.28;6119930;23;20042;-82
2022/01/14 05:19:40;;;;;;;5.45;1.08;;;;;;;3.55;100.00;101890.41;6120170;23;20039;-82
2022/01/14 05:22:43;;;;;;;3.17;0.85;;;;;;;3.51;100.00;101890.34;6091986;23;20102;-83
2022/01/14 05:25:47;;;;;;;1.10;0.98;;;;;;;3.46;100.00;101895.41;6091215;23;20044;-83
2022/01/14 05:28:50;;;;;;;0.40;0.40;;;;;;;3.35;100.00;101897.25;6120333;23;20051;-81
2022/01/14 05:32:02;;;;;;;0.38;0.38;;;;;;;3.35;100.00;101894.50;6116117;23;20046;-81
2022/01/14 05:35:05;;;;;;;;;;;;;;;3.39;100.00;101898.06;6112977;23;20035;-81
2022/01/14 05:38:08;;;;;;;1.60;0.75;;;;;;;3.42;100.00;101889.06;6110612;23;19908;-81
2022/01/14 05:41:17;;;;;;;1.52;0.47;;;;;;;3.44;100.00;101895.00;6081055;23;20062;-82
2022/01/14 05:44:23;;;;;;;0.70;0.60;;;;;;;3.44;100.00;101895.78;6120297;23;20042;-81
2022/01/14 05:47:26;;;;;;;7.20;0.88;;;;;;;3.42;100.00;101883.56;6084001;23;20038;-81
2022/01/14 05:50:30;;;;;;;0.60;0.60;;;;;;;3.30;100.00;101886.56;6107728;23;20043;-81
2022/01/14 05:53:33;;;;;;;0.95;0.90;;;;;;;3.33;100.00;101874.81;6101395;23;20500;-81
2022/01/14 05:56:36;;;;;;;0.30;0.30;;;;;;;3.34;100.00;101879.13;6119836;23;20038;-81
2022/01/14 05:59:40;;;;;;;2.05;0.55;;;;;;;3.29;100.00;101876.72;6103191;23;20046;-81
2022/01/14 06:02:48;;;;;;;0.60;0.50;;;;;;;3.25;100.00;101881.41;6100029;23;20150;-83
2022/01/14 06:05:52;;;;;;;1.25;0.90;;;;;;;3.13;100.00;101887.16;6105427;23;20038;-82
2022/01/14 06:08:56;;;;;;;0.40;0.40;;;;;;;3.10;100.00;101887.94;6079859;23;20059;-82
2022/01/14 06:11:59;;;;;;;0.90;0.50;;;;;;;3.12;100.00;101896.59;6120460;23;20042;-84
2022/01/14 06:15:03;;;;;;;0.73;0.73;;;;;;;2.98;100.00;101889.75;6086031;23;20047;-84
2022/01/14 06:18:07;;;;;;;0.15;0.15;;;;;;;2.96;100.00;101899.53;6111654;23;20608;-85
2022/01/14 06:21:11;;;;;;;3.45;0.70;;;;;;;2.93;100.00;101906.56;6108746;23;20046;-83
2022/01/14 06:24:14;;;;;;;0.22;0.22;;;;;;;2.89;100.00;101910.44;6105680;23;20050;-83
2022/01/14 06:27:18;;;;;;;0.98;0.85;;;;;;;2.91;100.00;101903.41;6104839;23;20061;-82
2022/01/14 06:30:21;;;;;;;1.75;0.60;;;;;;;2.88;100.00;101904.16;6104879;23;20114;-82
2022/01/14 06:33:24;;;;;;;0.47;0.47;;;;;;;2.87;100.00;101905.31;6102203;23;20489;-82
2022/01/14 06:36:28;;;;;;;0.10;0.10;;;;;;;2.82;100.00;101900.13;6095798;23;20039;-85
2022/01/14 06:39:31;;;;;;;0.80;0.80;;;;;;;2.77;100.00;101892.19;6076805;23;20393;-82
2022/01/14 06:42:34;;;;;;;25.63;1.92;;;;;;;2.68;100.00;101888.97;6101950;23;20059;-82
2022/01/14 06:45:38;;;;;;;2.70;1.42;;;;;;;2.62;100.00;101890.44;6110101;23;20405;-82
2022/01/14 06:48:41;;;;;;;8.77;0.95;;;;;;;2.67;100.00;101892.06;6109554;23;20039;-82
2022/01/14 06:51:45;;;;;;;1.75;1.08;;;;;;;2.77;100.00;101892.19;6103453;23;20044;-82
2022/01/14 06:54:48;;;;;;;15.75;2.17;;;;;;;2.85;100.00;101893.91;6076502;23;20043;-81
2022/01/14 06:57:52;;;;;;;7.88;2.28;;;;;;;2.91;100.00;101899.84;6083131;23;20042;-81
2022/01/14 07:00:55;;;;;;;18.73;2.85;;;;;;;2.91;100.00;101905.38;6120093;23;20046;-81
2022/01/14 07:03:59;;;;;;;34.53;3.58;;;;;;;2.89;100.00;101900.25;6089580;23;20059;-81
2022/01/14 07:07:03;;;;;;;27.83;5.65;;;;;;;2.84;100.00;101908.00;6116198;23;20062;-83
2022/01/14 07:10:08;;;;;;;11.05;2.67;;;;;;;2.88;100.00;101903.38;6103513;23;20402;-83
2022/01/14 07:13:11;;;;;;;5.95;1.58;;;;;;;2.80;100.00;101902.47;6121118;23;20051;-83
2022/01/14 07:16:14;;;;;;;1.15;1.15;;;;;;;2.73;100.00;101910.63;6096624;23;20042;-82
2022/01/14 07:19:21;;;;;;;4.95;3.30;;;;;;;2.66;100.00;101902.28;6104069;23;20046;-83
2022/01/14 07:22:24;;;;;;;2.03;1.85;;;;;;;2.58;100.00;101900.59;6092040;23;20042;-84
2022/01/14 07:25:28;;;;;;;3.65;1.60;;;;;;;2.58;100.00;101899.81;6076302;23;20414;-82
2022/01/14 07:28:31;;;;;;;0.30;0.30;;;;;;;2.58;100.00;101895.09;6094485;23;20555;-83
2022/01/14 07:31:35;;;;;;;4.78;1.38;;;;;;;2.59;100.00;101891.19;6098347;23;20059;-83
2022/01/14 07:34:38;;;;;;;13.43;1.23;;;;;;;2.56;100.00;101889.16;6085147;23;20043;-84
2022/01/14 07:37:42;;;;;;;0.65;0.60;;;;;;;2.61;100.00;101882.56;6091804;23;20059;-83
2022/01/14 07:40:45;;;;;;;2.63;1.48;;;;;;;2.58;100.00;101886.84;6074017;23;20043;-83
2022/01/14 07:43:49;;;;;;;1.67;0.70;;;;;;;2.59;100.00;101885.69;6081490;23;20063;-85
2022/01/14 07:46:53;;;;;;;5.55;1.42;;;;;;;2.60;100.00;101881.75;6113606;23;20059;-83
2022/01/14 07:49:56;;;;;;;3.55;1.17;;;;;;;2.59;100.00;101873.88;6121198;23;20063;-83
2022/01/14 07:53:00;;;;;;;0.80;0.80;;;;;;;2.56;100.00;101883.66;6120884;23;20059;-81
2022/01/14 07:56:06;;;;;;;5.18;2.58;;;;;;;2.51;100.00;101877.72;6112455;23;20043;-86
2022/01/14 07:59:10;;;;;;;0.90;0.57;;;;;;;2.48;100.00;101879.25;6092361;23;20031;-85
2022/01/14 08:02:14;;;;;;;11.35;1.35;;;;;;;2.50;100.00;101882.41;6078185;23;20047;-84
2022/01/14 08:05:17;;;;;;;3.45;1.27;;;;;;;2.59;100.00;101882.94;6096621;23;20062;-82
2022/01/14 08:08:21;;;;;;;5.47;1.58;;;;;;;2.60;100.00;101881.00;6102428;23;20505;-82
2022/01/14 08:11:24;;;;;;;4.13;1.13;;;;;;;2.58;100.00;101875.84;6121188;23;20043;-83
2022/01/14 08:14:27;;;;;;;6.05;1.55;;;;;;;2.62;100.00;101873.16;6103259;23;20043;-84
2022/01/14 08:17:31;;;;;;;4.63;1.15;;;;;;;2.67;100.00;101879.13;6117342;23;20039;-84
2022/01/14 08:20:35;;;;;;;1.52;1.27;;;;;;;2.65;100.00;101888.91;6121441;23;20421;-85
2022/01/14 08:23:39;;;;;;;2.40;1.33;;;;;;;2.54;100.00;101894.25;6120873;23;20485;-87
2022/01/14 08:26:43;;;;;;;0.38;0.22;;;;;;;2.54;100.00;101887.94;6108484;23;20043;-85
2022/01/14 08:29:47;;;;;;;0.68;0.68;;;;;;;2.62;100.00;101890.44;6119314;23;20058;-86
2022/01/14 08:32:51;;;;;;;0.85;0.77;;;;;;;2.65;100.00;101889.69;6105550;23;20046;-83
2022/01/14 08:35:54;;;;;;;1.75;1.00;;;;;;;2.76;100.00;101885.13;6096487;23;20043;-83
2022/01/14 08:38:59;;;;;;;1.05;0.68;;;;;;;2.79;100.00;101891.84;6117420;23;20042;-81
2022/01/14 08:42:04;;;;;;;1.40;0.90;;;;;;;2.72;100.00;101887.03;6084279;23;20047;-85
2022/01/14 08:45:08;;;;;;;3.45;0.88;;;;;;;2.70;100.00;101892.13;6078281;23;20382;-79
2022/01/14 08:48:12;;;;;;;0.80;0.75;;;;;;;2.75;100.00;101891.78;6079786;23;20046;-80
2022/01/14 08:51:15;;;;;;;0.82;0.73;;;;;;;2.75;100.00;101894.53;6108547;23;20058;-81
2022/01/14 08:54:19;;;;;;;0.50;0.50;;;;;;;2.71;100.00;101888.19;6119588;23;20043;-81
2022/01/14 08:57:23;;;;;;;8.13;1.90;;;;;;;2.77;100.00;101897.72;6093804;23;20044;-86
2022/01/14 09:00:26;;;;;;;3.83;1.42;;;;;;;2.79;100.00;101895.41;6098762;23;20050;-85
2022/01/14 09:03:29;;;;;;;5.20;1.83;;;;;;;2.86;100.00;101898.22;6119233;23;20043;-82
2022/01/14 09:06:33;;;;;;;3.20;1.27;;;;;;;2.86;100.00;101900.97;6082517;23;20043;-80
2022/01/14 09:09:37;;;;;;;4.85;0.95;;;;;;;2.90;100.00;101895.53;6102033;23;20043;-80
2022/01/14 09:12:40;;;;;;;7.05;1.75;;;;;;;2.92;100.00;101898.72;6102581;23;20051;-83
2022/01/14 09:15:46;;;;;;;5.70;1.70;;;;;;;2.94;100.00;101894.41;6079776;23;20393;-80
2022/01/14 09:18:50;;;;;;;7.68;1.98;;;;;;;3.03;100.00;101894.13;6098623;23;20043;-80
2022/01/14 09:21:53;;;;;;;0.95;0.85;;;;;;;3.02;100.00;101887.03;6115724;23;20051;-82
2022/01/14 09:24:59;;;;;;;1.10;1.00;;;;;;;3.04;100.00;101885.50;6085735;23;20043;-81
2022/01/14 09:28:02;;;;;;;1.27;0.75;;;;;;;3.11;100.00;101889.50;6094809;23;20501;-80
2022/01/14 09:31:06;;;;;;;1.83;0.98;;;;;;;3.11;100.00;101895.00;6120070;23;20038;-81
2022/01/14 09:34:10;;;;;;;4.50;1.33;;;;;;;3.17;100.00;101902.53;6118443;23;20043;-81
2022/01/14 09:37:13;;;;;;;0.80;0.80;;;;;;;3.28;100.00;101905.41;6103451;23;20043;-80
2022/01/14 09:40:18;;;;;;;3.60;1.35;;;;;;;3.39;100.00;101900.84;6117784;23;20093;-80
2022/01/14 09:43:21;;;;;;;1.88;0.85;;;;;;;3.52;100.00;101899.41;6086371;23;20044;-82
2022/01/14 09:46:24;;;;;;;2.13;1.40;;;;;;;3.54;100.00;101902.56;6106505;23;20051;-82
2022/01/14 09:49:28;;;;;;;2.03;0.60;;;;;;;3.45;100.00;101902.88;6093930;23;20059;-81
2022/01/14 09:52:32;;;;;;;1.75;1.65;;;;;;;3.41;100.00;101904.00;6118989;23;20046;-82
2022/01/14 09:55:35;;;;;;;5.28;2.28;;;;;;;3.47;100.00;101902.47;6119827;23;20045;-82
2022/01/14 09:58:45;;;;;;;0.80;0.73;;;;;;;3.55;100.00;101904.94;6078885;23;20043;-83
2022/01/14 10:01:51;;;;;;;1.70;0.82;;;;;;;3.62;100.00;101906.97;6098884;23;20047;-80
2022/01/14 10:04:54;;;;;;;3.92;1.63;;;;;;;3.48;100.00;101906.84;6081189;23;20051;-82
2022/01/14 10:08:17;;;;;;;1.23;0.85;;;;;;;3.62;100.00;101904.22;6097847;23;20040;-81
2022/01/14 10:11:21;;;;;;;4.65;1.75;;;;;;;3.72;100.00;101903.53;6104483;23;20042;-82
2022/01/14 10:14:24;;;;;;;4.47;2.03;;;;;;;3.74;100.00;101892.94;6080714;23;20055;-81
2022/01/14 10:17:37;;;;;;;1.00;0.95;;;;;;;3.75;100.00;101895.31;6087191;23;20489;-79
2022/01/14 10:20:40;;;;;;;3.83;1.35;;;;;;;3.71;100.00;101896.44;6117887;23;20039;-79
2022/01/14 10:23:51;;;;;;;2.80;1.50;;;;;;;3.88;100.00;101895.03;6101701;23;20039;-79
2022/01/14 10:26:57;;;;;;;3.85;1.92;;;;;;;3.95;100.00;101892.31;6079324;23;20046;-79
2022/01/14 10:30:15;;;;;;;2.20;1.15;;;;;;;3.98;100.00;101895.13;6117728;23;20059;-79
2022/01/14 10:33:22;;;;;;;3.38;2.15;;;;;;;4.01;100.00;101902.63;6119245;23;20038;-80
2022/01/14 10:36:26;;;;;;;1.75;1.23;;;;;;;4.07;100.00;101903.06;6118610;23;20042;-79
2022/01/14 10:39:29;;;;;;;3.40;1.75;;;;;;;4.11;100.00;101893.66;6103379;23;20042;-80
2022/01/14 10:42:34;;;;;;;5.05;2.40;;;;;;;4.07;100.00;101895.56;6117966;23;20046;-79
2022/01/14 10:45:38;;;;;;;2.85;1.42;;;;;;;3.99;100.00;101893.94;6090179;23;20062;-79
2022/01/14 10:48:46;;;;;;;2.38;1.08;;;;;;;4.06;100.00;101891.25;6115400;23;20035;-80
2022/01/14 10:52:14;;;;;;;3.78;0.98;;;;;;;4.16;100.00;101890.53;6108190;23;20039;-79
2022/01/14 10:55:38;;;;;;;5.38;1.38;;;;;;;4.12;100.00;101878.69;6092035;23;20473;-79
2022/01/14 10:58:42;;;;;;;2.13;1.77;;;;;;;4.08;100.00;101877.06;6099948;23;20043;-79
2022/01/14 11:01:46;;;;;;;1.33;1.08;;;;;;;4.04;100.00;101874.31;6108972;23;20040;-80
2022/01/14 11:05:11;;;;;;;1.95;1.25;;;;;;;4.07;100.00;101870.75;6118235;23;20039;-80
2022/01/14 11:08:15;;;;;;;1.17;0.73;;;;;;;4.06;100.00;101874.72;6120165;23;20043;-81
2022/01/14 11:11:18;;;;;;;25.17;1.52;;;;;;;4.13;100.00;101866.50;6102511;23;20389;-80
2022/01/14 11:14:22;;;;;;;3.10;0.57;;;;;;;4.10;100.00;101866.44;6120669;23;20093;-79
2022/01/14 11:17:25;;;;;;;1.58;1.48;;;;;;;4.14;100.00;101859.78;6110470;23;20043;-81
2022/01/14 11:20:34;;;;;;;2.10;1.48;;;;;;;4.18;100.00;101855.09;6113464;23;20409;-80
2022/01/14 11:23:38;;;;;;;2.08;1.23;;;;;;;4.14;100.00;101848.75;6073987;23;20043;-81
2022/01/14 11:26:43;;;;;;;1.60;0.85;;;;;;;4.22;100.00;101861.41;6097556;23;20039;-81
2022/01/14 11:29:48;;;;;;;4.57;1.75;;;;;;;4.32;100.00;101860.72;6103995;23;20397;-81
2022/01/14 11:32:56;;;;;;;0.43;0.43;;;;;;;4.42;100.00;101860.00;6081406;23;20107;-80
2022/01/14 11:36:00;;;;;;;3.28;1.45;;;;;;;4.47;100.00;101856.06;6116657;23;20393;-81
2022/01/14 11:39:22;;;;;;;5.88;1.13;;;;;;;4.47;100.00;101850.56;6088994;23;20513;-81
2022/01/14 11:42:47;;;;;;;3.35;0.95;;;;;;;4.72;100.00;101839.66;6110779;23;20047;-80
2022/01/14 11:45:52;;;;;;;3.22;1.15;;;;;;;4.75;100.00;101838.88;6074018;23;20043;-81
2022/01/14 11:48:55;;;;;;;0.98;0.98;;;;;;;4.73;100.00;101847.53;6110084;23;20043;-79
2022/01/14 11:52:01;;;;;;;3.83;1.27;;;;;;;4.86;100.00;101840.50;6103164;23;20043;-81
2022/01/14 11:55:19;;;;;;;2.10;1.00;;;;;;;5.05;100.00;101842.16;6120742;23;20034;-80
2022/01/14 11:58:22;;;;;;;1.55;0.65;;;;;;;5.09;100.00;101840.22;6118428;23;20046;-82
2022/01/14 12:01:33;;;;;;;1.98;1.30;;;;;;;5.08;100.00;101836.66;6075586;23;20576;-80
2022/01/14 12:05:01;;;;;;;3.70;1.05;;;;;;;5.26;100.00;101839.47;6110954;23;20058;-81
2022/01/14 12:08:11;;;;;;;0.50;0.50;;;;;;;5.41;100.00;101832.78;6106457;23;20736;-80
2022/01/14 12:11:16;;;;;;;1.50;1.08;;;;;;;5.48;100.00;101821.72;6118739;23;20039;-81
2022/01/14 12:14:36;;;;;;;2.83;0.90;;;;;;;5.53;100.00;101821.34;6086117;23;20039;-80
2022/01/14 12:17:42;;;;;;;10.75;1.25;;;;;;;5.58;100.00;101809.91;6072993;23;20062;-80
2022/01/14 12:20:49;;;;;;;2.38;1.23;;;;;;;5.69;100.00;101810.72;6101148;23;20042;-80
2022/01/14 12:23:58;;;;;;;2.00;0.90;;;;;;;5.68;100.00;101797.25;6101047;23;20043;-80
2022/01/14 12:27:08;;;;;;;10.98;1.05;;;;;;;5.68;100.00;101803.59;6120342;23;20044;-80
2022/01/14 12:30:23;;;;;;;0.82;0.52;;;;;;;5.61;100.00;101792.53;6087119;23;20039;-80
2022/01/14 12:33:48;;;;;;;2.50;1.05;;;;;;;5.51;100.00;101781.47;6092849;23;20039;-80
2022/01/14 12:36:52;;;;;;;0.52;0.50;;;;;;;5.50;100.00;101786.19;6118922;23;20039;-80
2022/01/14 12:40:01;;;;;;;0.65;0.52;;;;;;;5.60;100.00;101784.63;6102142;23;20051;-81
2022/01/14 12:43:09;;;;;;;5.40;0.32;;;;;;;5.66;100.00;101783.84;6119624;23;20051;-81
2022/01/14 12:46:34;;;;;;;2.13;0.65;;;;;;;5.79;100.00;101770.41;6119709;23;20043;-80
2022/01/14 12:49:40;;;;;;;4.32;0.95;;;;;;;5.93;100.00;101759.38;6108393;23;20058;-81
2022/01/14 12:52:49;;;;;;;0.30;0.30;;;;;;;5.98;100.00;101761.72;6120058;23;20039;-81
2022/01/14 12:55:52;;;;;;;0.55;0.15;;;;;;;5.95;100.00;101752.28;6118289;23;20058;-81
2022/01/14 12:59:09;;;;;;;2.33;1.58;;;;;;;6.05;100.00;101751.44;6118564;23;20058;-80
2022/01/14 13:02:20;;;;;;;2.33;0.50;;;;;;;6.15;100.00;101743.53;6108472;23;20039;-80
2022/01/14 13:05:26;;;;;;;1.95;1.35;;;;;;;6.33;100.00;101739.50;6110456;23;20039;-80
2022/01/14 13:08:29;;;;;;;4.57;1.33;;;;;;;6.37;100.00;101728.41;6103491;23;20059;-80
2022/01/14 13:11:52;;;;;;;3.63;0.73;;;;;;;6.44;100.00;101728.41;6099581;23;20389;-80
2022/01/14 13:15:04;;;;;;;1.45;1.05;;;;;;;6.50;100.00;101727.56;6102162;23;20047;-81
2022/01/14 13:18:14;;;;;;;3.28;0.90;;;;;;;6.59;100.00;101718.84;6081665;23;20230;-81
2022/01/14 13:21:18;;;;;;;3.83;0.52;;;;;;;6.53;100.00;101703.84;6094904;23;20042;-81
2022/01/14 13:24:25;;;;;;;2.70;0.60;;;;;;;6.52;100.00;101707.81;6108910;23;20198;-81
2022/01/14 13:27:34;;;;;;;0.80;0.40;;;;;;;6.44;100.00;101717.31;6114679;23;20039;-81
2022/01/14 13:30:42;;;;;;;1.00;0.60;;;;;;;6.45;100.00;101699.53;6104834;23;20397;-81
2022/01/14 13:33:46;;;;;;;0.60;0.60;;;;;;;6.59;100.00;101693.94;6075895;23;20047;-80
2022/01/14 13:36:49;;;;;;;8.00;0.65;;;;;;;6.56;100.00;101703.06;6072791;23;20036;-80
2022/01/14 13:40:00;;;;;;;1.17;1.08;;;;;;;6.51;100.00;101689.63;6093940;23;20119;-82
2022/01/14 13:43:21;;;;;;;4.07;1.08;;;;;;;6.56;100.00;101689.22;6119745;23;20062;-81
2022/01/14 13:46:32;;;;;;;0.20;0.20;;;;;;;6.52;100.00;101680.91;6104108;23;20093;-82
2022/01/14 13:49:36;;;;;;;1.77;1.00;;;;;;;6.55;100.00;101684.84;6119436;23;20042;-82
2022/01/14 13:52:44;;;;;;;3.13;0.93;;;;;;;6.58;100.00;101678.53;6103176;23;20042;-83
2022/01/14 13:55:54;;;;;;;0.73;0.65;;;;;;;6.51;100.00;101684.09;6118470;23;20043;-83
2022/01/14 13:59:00;;;;;;;11.13;1.48;;;;;;;6.58;100.00;101673.00;6112756;23;20043;-84
2022/01/14 14:02:06;;;;;;;1.75;0.40;;;;;;;6.76;100.00;101662.56;6089629;23;20051;-82
2022/01/14 14:05:10;;;;;;;0.45;0.38;;;;;;;6.81;100.00;101653.84;6072887;23;20055;-82
2022/01/14 14:08:34;;;;;;;7.53;1.27;;;;;;;6.71;100.00;101651.94;6090583;23;20673;-82
2022/01/14 14:18:39;;;;;;;3.15;0.73;;;;;;;6.48;100.00;101648.91;6091712;23;20039;-81
2022/01/14 14:21:45;;;;;;;7.47;1.75;;;;;;;6.67;100.00;101648.41;6092361;23;20043;-81
2022/01/14 14:25:01;;;;;;;2.70;1.15;;;;;;;6.81;100.00;101638.03;6103656;23;20496;-82
2022/01/14 14:28:11;;;;;;;1.77;0.70;;;;;;;6.80;100.00;101641.19;6116935;23;20107;-81
2022/01/14 14:31:26;;;;;;;7.82;1.33;;;;;;;6.64;100.00;101643.69;6108320;23;20042;-81
2022/01/14 14:34:29;;;;;;;2.58;0.63;;;;;;;6.57;100.00;101643.72;6091474;23;20494;-81
2022/01/14 14:37:36;;;;;;;5.82;1.48;;;;;;;6.55;100.00;101646.09;6110947;23;20039;-81
2022/01/14 14:40:39;;;;;;;0.75;0.65;;;;;;;6.45;100.00;101642.22;6085911;23;20385;-81
2022/01/14 14:43:43;;;;;;;0.95;0.63;;;;;;;6.41;100.00;101635.91;6120897;23;20401;-81
2022/01/14 14:46:47;;;;;;;1.48;0.98;;;;;;;6.34;100.00;101635.16;6091570;23;20059;-82
2022/01/14 14:49:50;;;;;;;4.80;1.02;;;;;;;6.35;100.00;101636.72;6097801;23;20043;-82
2022/01/14 14:52:55;;;;;;;3.40;1.08;;;;;;;6.34;100.00;101641.50;6091429;23;20481;-82
2022/01/14 14:55:58;;;;;;;3.30;0.75;;;;;;;6.26;100.00;101636.41;6108226;23;20042;-82
2022/01/14 14:59:02;;;;;;;1.15;1.02;;;;;;;6.28;100.00;101631.25;6116146;23;20058;-81
2022/01/14 15:02:07;;;;;;;1.75;0.75;;;;;;;6.25;100.00;101626.50;6103017;23;20042;-81
2022/01/14 15:05:12;;;;;;;3.58;1.15;;;;;;;6.24;100.00;101624.94;6104496;23;20043;-81
2022/01/14 15:08:15;;;;;;;0.28;0.25;;;;;;;6.36;100.00;101622.50;6098960;23;20058;-83
2022/01/14 15:11:18;;;;;;;3.92;0.82;;;;;;;6.38;100.00;101616.56;6102280;23;20043;-83
2022/01/14 15:14:23;;;;;;;5.70;1.33;;;;;;;6.28;100.00;101614.66;6116565;23;20218;-84
2022/01/14 15:20:30;;;;;;;8.10;1.35;;;;;;;5.92;100.00;101614.81;6091006;23;20043;-83
2022/01/14 15:23:33;;;;;;;2.80;0.80;;;;;;;5.94;100.00;101611.63;6090143;23;20047;-83
2022/01/14 15:26:36;;;;;;;1.35;0.90;;;;;;;6.04;100.00;101619.88;6116289;23;20042;-82